sensor_id;sensor_type;location;lat;lon;timestamp;P1;durP1;ratioP1;P2;durP2;ratioP2
18501;SDS011;68437;52.236;5.710;2024-01-30T00:00:05;53.53;;;27.25;;
18501;SDS011;68437;52.236;5.710;2024-01-30T00:02:34;59.97;;;28.05;;
18501;SDS011;68437;52.236;5.710;2024-01-30T00:05:02;59.58;;;28.85;;
18501;SDS011;68437;52.236;5.710;2024-01-30T00:07:29;55.05;;;27.55;;
18501;SDS011;68437;52.236;5.710;2024-01-30T00:09:56;57.88;;;27.50;;
18501;SDS011;68437;52.236;5.710;2024-01-30T00:12:23;55.63;;;27.23;;
18501;SDS011;68437;52.236;5.710;2024-01-30T00:14:50;54.60;;;27.63;;
18501;SDS011;68437;52.236;5.710;2024-01-30T00:17:17;53.90;;;27.13;;
18501;SDS011;68437;52.236;5.710;2024-01-30T00:19:45;52.10;;;26.20;;
18501;SDS011;68437;52.236;5.710;2024-01-30T00:22:14;51.63;;;26.27;;
18501;SDS011;68437;52.236;5.710;2024-01-30T00:24:40;50.28;;;25.98;;
18501;SDS011;68437;52.236;5.710;2024-01-30T00:27:07;53.50;;;26.05;;
18501;SDS011;68437;52.236;5.710;2024-01-30T00:29:34;52.75;;;25.92;;
18501;SDS011;68437;52.236;5.710;2024-01-30T00:32:01;51.58;;;25.35;;
18501;SDS011;68437;52.236;5.710;2024-01-30T00:34:28;53.85;;;25.33;;
18501;SDS011;68437;52.236;5.710;2024-01-30T00:36:55;53.38;;;26.02;;
18501;SDS011;68437;52.236;5.710;2024-01-30T00:39:26;52.22;;;25.73;;
18501;SDS011;68437;52.236;5.710;2024-01-30T00:41:53;52.67;;;25.77;;
18501;SDS011;68437;52.236;5.710;2024-01-30T00:44:19;50.78;;;25.73;;
18501;SDS011;68437;52.236;5.710;2024-01-30T00:46:46;52.55;;;25.80;;
18501;SDS011;68437;52.236;5.710;2024-01-30T00:49:13;48.55;;;25.33;;
18501;SDS011;68437;52.236;5.710;2024-01-30T00:51:40;48.95;;;25.63;;
18501;SDS011;68437;52.236;5.710;2024-01-30T00:54:06;54.03;;;25.88;;
18501;SDS011;68437;52.236;5.710;2024-01-30T00:56:35;47.80;;;25.33;;
18501;SDS011;68437;52.236;5.710;2024-01-30T00:59:01;52.67;;;26.10;;
18501;SDS011;68437;52.236;5.710;2024-01-30T01:01:28;52.20;;;25.75;;
18501;SDS011;68437;52.236;5.710;2024-01-30T01:03:55;55.88;;;26.33;;
18501;SDS011;68437;52.236;5.710;2024-01-30T01:06:23;53.03;;;26.17;;
18501;SDS011;68437;52.236;5.710;2024-01-30T01:08:50;51.83;;;26.27;;
18501;SDS011;68437;52.236;5.710;2024-01-30T01:11:18;50.47;;;26.30;;
18501;SDS011;68437;52.236;5.710;2024-01-30T01:13:49;54.58;;;26.08;;
18501;SDS011;68437;52.236;5.710;2024-01-30T01:16:16;51.60;;;26.23;;
18501;SDS011;68437;52.236;5.710;2024-01-30T01:18:43;51.13;;;26.25;;
18501;SDS011;68437;52.236;5.710;2024-01-30T01:21:10;58.35;;;26.67;;
18501;SDS011;68437;52.236;5.710;2024-01-30T01:23:36;53.65;;;26.65;;
18501;SDS011;68437;52.236;5.710;2024-01-30T01:26:04;56.78;;;27.23;;
18501;SDS011;68437;52.236;5.710;2024-01-30T01:28:31;52.38;;;27.08;;
18501;SDS011;68437;52.236;5.710;2024-01-30T01:30:59;56.53;;;26.52;;
18501;SDS011;68437;52.236;5.710;2024-01-30T01:33:30;53.60;;;26.55;;
18501;SDS011;68437;52.236;5.710;2024-01-30T01:35:58;52.63;;;26.50;;
18501;SDS011;68437;52.236;5.710;2024-01-30T01:38:24;53.53;;;26.27;;
18501;SDS011;68437;52.236;5.710;2024-01-30T01:40:51;59.22;;;27.48;;
18501;SDS011;68437;52.236;5.710;2024-01-30T01:43:18;52.00;;;26.35;;
18501;SDS011;68437;52.236;5.710;2024-01-30T01:45:45;50.92;;;25.55;;
18501;SDS011;68437;52.236;5.710;2024-01-30T01:48:12;54.63;;;27.20;;
18501;SDS011;68437;52.236;5.710;2024-01-30T01:50:39;50.90;;;26.10;;
18501;SDS011;68437;52.236;5.710;2024-01-30T01:53:07;55.33;;;26.58;;
18501;SDS011;68437;52.236;5.710;2024-01-30T01:55:34;54.63;;;25.48;;
18501;SDS011;68437;52.236;5.710;2024-01-30T01:58:02;52.17;;;26.08;;
18501;SDS011;68437;52.236;5.710;2024-01-30T02:00:30;52.40;;;25.45;;
18501;SDS011;68437;52.236;5.710;2024-01-30T02:02:57;49.05;;;24.98;;
18501;SDS011;68437;52.236;5.710;2024-01-30T02:05:26;52.85;;;25.48;;
18501;SDS011;68437;52.236;5.710;2024-01-30T02:07:53;57.20;;;27.05;;
18501;SDS011;68437;52.236;5.710;2024-01-30T02:10:20;51.67;;;25.25;;
18501;SDS011;68437;52.236;5.710;2024-01-30T02:12:48;48.47;;;25.10;;
18501;SDS011;68437;52.236;5.710;2024-01-30T02:15:15;63.55;;;26.45;;
18501;SDS011;68437;52.236;5.710;2024-01-30T02:17:42;49.13;;;25.23;;
18501;SDS011;68437;52.236;5.710;2024-01-30T02:20:09;52.05;;;26.42;;
18501;SDS011;68437;52.236;5.710;2024-01-30T02:22:38;51.83;;;24.38;;
18501;SDS011;68437;52.236;5.710;2024-01-30T02:25:06;50.38;;;24.23;;
18501;SDS011;68437;52.236;5.710;2024-01-30T02:27:34;48.05;;;23.77;;
18501;SDS011;68437;52.236;5.710;2024-01-30T02:30:00;51.22;;;24.52;;
18501;SDS011;68437;52.236;5.710;2024-01-30T02:32:27;52.75;;;24.58;;
18501;SDS011;68437;52.236;5.710;2024-01-30T02:34:54;55.30;;;25.00;;
18501;SDS011;68437;52.236;5.710;2024-01-30T02:37:21;48.95;;;24.55;;
18501;SDS011;68437;52.236;5.710;2024-01-30T02:39:49;51.63;;;24.80;;
18501;SDS011;68437;52.236;5.710;2024-01-30T02:42:16;49.25;;;24.55;;
18501;SDS011;68437;52.236;5.710;2024-01-30T02:44:44;51.72;;;25.40;;
18501;SDS011;68437;52.236;5.710;2024-01-30T02:47:11;53.03;;;24.48;;
18501;SDS011;68437;52.236;5.710;2024-01-30T02:49:37;50.85;;;24.17;;
18501;SDS011;68437;52.236;5.710;2024-01-30T02:52:04;56.53;;;25.70;;
18501;SDS011;68437;52.236;5.710;2024-01-30T02:54:31;53.85;;;25.85;;
18501;SDS011;68437;52.236;5.710;2024-01-30T02:56:59;55.55;;;26.00;;
18501;SDS011;68437;52.236;5.710;2024-01-30T02:59:28;56.25;;;24.85;;
18501;SDS011;68437;52.236;5.710;2024-01-30T03:01:58;58.30;;;25.77;;
18501;SDS011;68437;52.236;5.710;2024-01-30T03:04:25;54.55;;;25.98;;
18501;SDS011;68437;52.236;5.710;2024-01-30T03:06:51;59.63;;;25.98;;
18501;SDS011;68437;52.236;5.710;2024-01-30T03:09:18;55.20;;;26.27;;
18501;SDS011;68437;52.236;5.710;2024-01-30T03:11:45;60.58;;;26.33;;
18501;SDS011;68437;52.236;5.710;2024-01-30T03:14:17;56.28;;;26.48;;
18501;SDS011;68437;52.236;5.710;2024-01-30T03:16:44;52.80;;;25.02;;
18501;SDS011;68437;52.236;5.710;2024-01-30T03:19:11;52.55;;;25.65;;
18501;SDS011;68437;52.236;5.710;2024-01-30T03:21:37;56.88;;;26.40;;
18501;SDS011;68437;52.236;5.710;2024-01-30T03:24:08;53.13;;;25.73;;
18501;SDS011;68437;52.236;5.710;2024-01-30T03:26:35;50.05;;;24.95;;
18501;SDS011;68437;52.236;5.710;2024-01-30T03:29:02;54.80;;;26.33;;
18501;SDS011;68437;52.236;5.710;2024-01-30T03:31:30;53.65;;;25.80;;
18501;SDS011;68437;52.236;5.710;2024-01-30T03:33:57;54.95;;;25.17;;
18501;SDS011;68437;52.236;5.710;2024-01-30T03:36:24;50.03;;;24.40;;
18501;SDS011;68437;52.236;5.710;2024-01-30T03:38:51;51.70;;;24.70;;
18501;SDS011;68437;52.236;5.710;2024-01-30T03:41:17;48.33;;;23.75;;
18501;SDS011;68437;52.236;5.710;2024-01-30T03:43:44;50.03;;;23.58;;
18501;SDS011;68437;52.236;5.710;2024-01-30T03:46:11;47.92;;;23.63;;
18501;SDS011;68437;52.236;5.710;2024-01-30T03:48:40;47.67;;;23.10;;
18501;SDS011;68437;52.236;5.710;2024-01-30T03:51:07;45.03;;;22.88;;
18501;SDS011;68437;52.236;5.710;2024-01-30T03:53:34;45.90;;;23.30;;
18501;SDS011;68437;52.236;5.710;2024-01-30T03:56:00;47.03;;;23.10;;
18501;SDS011;68437;52.236;5.710;2024-01-30T03:58:28;49.13;;;23.88;;
18501;SDS011;68437;52.236;5.710;2024-01-30T04:00:55;44.63;;;22.95;;
18501;SDS011;68437;52.236;5.710;2024-01-30T04:03:21;45.05;;;22.20;;
18501;SDS011;68437;52.236;5.710;2024-01-30T04:05:50;44.50;;;22.40;;
18501;SDS011;68437;52.236;5.710;2024-01-30T04:08:17;48.35;;;22.50;;
18501;SDS011;68437;52.236;5.710;2024-01-30T04:10:44;42.22;;;21.92;;
18501;SDS011;68437;52.236;5.710;2024-01-30T04:13:12;46.95;;;22.63;;
18501;SDS011;68437;52.236;5.710;2024-01-30T04:15:39;44.25;;;21.67;;
18501;SDS011;68437;52.236;5.710;2024-01-30T04:18:05;41.47;;;22.13;;
18501;SDS011;68437;52.236;5.710;2024-01-30T04:20:32;43.13;;;21.88;;
18501;SDS011;68437;52.236;5.710;2024-01-30T04:23:00;39.60;;;20.75;;
18501;SDS011;68437;52.236;5.710;2024-01-30T04:25:27;44.92;;;21.13;;
18501;SDS011;68437;52.236;5.710;2024-01-30T04:27:54;43.53;;;21.42;;
18501;SDS011;68437;52.236;5.710;2024-01-30T04:30:21;40.50;;;21.05;;
18501;SDS011;68437;52.236;5.710;2024-01-30T04:32:48;40.97;;;20.23;;
18501;SDS011;68437;52.236;5.710;2024-01-30T04:35:15;38.80;;;20.25;;
18501;SDS011;68437;52.236;5.710;2024-01-30T04:37:41;42.90;;;20.70;;
18501;SDS011;68437;52.236;5.710;2024-01-30T04:40:10;42.80;;;20.83;;
18501;SDS011;68437;52.236;5.710;2024-01-30T04:42:39;41.42;;;20.40;;
18501;SDS011;68437;52.236;5.710;2024-01-30T04:45:06;36.33;;;19.17;;
18501;SDS011;68437;52.236;5.710;2024-01-30T04:47:33;41.20;;;20.17;;
18501;SDS011;68437;52.236;5.710;2024-01-30T04:50:00;35.08;;;19.15;;
18501;SDS011;68437;52.236;5.710;2024-01-30T04:52:30;36.10;;;18.30;;
18501;SDS011;68437;52.236;5.710;2024-01-30T04:54:57;40.08;;;19.02;;
18501;SDS011;68437;52.236;5.710;2024-01-30T04:57:25;38.92;;;19.42;;
18501;SDS011;68437;52.236;5.710;2024-01-30T04:59:52;37.10;;;18.98;;
18501;SDS011;68437;52.236;5.710;2024-01-30T05:02:19;39.38;;;19.10;;
18501;SDS011;68437;52.236;5.710;2024-01-30T05:04:46;37.13;;;19.73;;
18501;SDS011;68437;52.236;5.710;2024-01-30T05:07:13;37.35;;;18.70;;
18501;SDS011;68437;52.236;5.710;2024-01-30T05:09:40;35.33;;;17.95;;
18501;SDS011;68437;52.236;5.710;2024-01-30T05:12:07;36.75;;;17.90;;
18501;SDS011;68437;52.236;5.710;2024-01-30T05:14:35;35.28;;;19.00;;
18501;SDS011;68437;52.236;5.710;2024-01-30T05:17:02;36.35;;;20.40;;
18501;SDS011;68437;52.236;5.710;2024-01-30T05:19:29;39.67;;;22.30;;
18501;SDS011;68437;52.236;5.710;2024-01-30T05:21:55;47.38;;;25.35;;
18501;SDS011;68437;52.236;5.710;2024-01-30T05:24:22;45.13;;;25.65;;
18501;SDS011;68437;52.236;5.710;2024-01-30T05:26:49;42.45;;;22.30;;
18501;SDS011;68437;52.236;5.710;2024-01-30T05:29:16;39.65;;;19.63;;
18501;SDS011;68437;52.236;5.710;2024-01-30T05:31:45;40.25;;;20.45;;
18501;SDS011;68437;52.236;5.710;2024-01-30T05:34:12;34.83;;;19.33;;
18501;SDS011;68437;52.236;5.710;2024-01-30T05:36:39;33.55;;;18.15;;
18501;SDS011;68437;52.236;5.710;2024-01-30T05:39:09;35.03;;;18.48;;
18501;SDS011;68437;52.236;5.710;2024-01-30T05:41:36;32.90;;;17.52;;
18501;SDS011;68437;52.236;5.710;2024-01-30T05:44:03;35.53;;;17.85;;
18501;SDS011;68437;52.236;5.710;2024-01-30T05:46:30;33.63;;;17.90;;
18501;SDS011;68437;52.236;5.710;2024-01-30T05:48:58;36.80;;;18.35;;
18501;SDS011;68437;52.236;5.710;2024-01-30T05:51:25;35.85;;;16.90;;
18501;SDS011;68437;52.236;5.710;2024-01-30T05:53:53;33.38;;;17.15;;
18501;SDS011;68437;52.236;5.710;2024-01-30T05:56:19;32.63;;;18.02;;
18501;SDS011;68437;52.236;5.710;2024-01-30T05:58:46;34.92;;;16.80;;
18501;SDS011;68437;52.236;5.710;2024-01-30T06:01:15;36.13;;;17.58;;
18501;SDS011;68437;52.236;5.710;2024-01-30T06:03:43;31.75;;;17.08;;
18501;SDS011;68437;52.236;5.710;2024-01-30T06:06:11;35.10;;;17.33;;
18501;SDS011;68437;52.236;5.710;2024-01-30T06:08:38;34.15;;;17.30;;
18501;SDS011;68437;52.236;5.710;2024-01-30T06:11:04;33.75;;;17.38;;
18501;SDS011;68437;52.236;5.710;2024-01-30T06:13:31;32.17;;;16.83;;
18501;SDS011;68437;52.236;5.710;2024-01-30T06:15:59;44.15;;;21.52;;
18501;SDS011;68437;52.236;5.710;2024-01-30T06:18:25;49.22;;;22.05;;
18501;SDS011;68437;52.236;5.710;2024-01-30T06:20:54;37.00;;;18.55;;
18501;SDS011;68437;52.236;5.710;2024-01-30T06:23:22;33.20;;;17.15;;
18501;SDS011;68437;52.236;5.710;2024-01-30T06:25:49;33.20;;;17.23;;
18501;SDS011;68437;52.236;5.710;2024-01-30T06:28:16;31.38;;;16.35;;
18501;SDS011;68437;52.236;5.710;2024-01-30T06:30:42;32.75;;;16.63;;
18501;SDS011;68437;52.236;5.710;2024-01-30T06:33:11;32.80;;;17.20;;
18501;SDS011;68437;52.236;5.710;2024-01-30T06:35:38;31.95;;;16.52;;
18501;SDS011;68437;52.236;5.710;2024-01-30T06:38:08;32.83;;;17.17;;
18501;SDS011;68437;52.236;5.710;2024-01-30T06:40:36;34.65;;;17.05;;
18501;SDS011;68437;52.236;5.710;2024-01-30T06:43:04;32.67;;;17.65;;
18501;SDS011;68437;52.236;5.710;2024-01-30T06:45:33;34.35;;;17.48;;
18501;SDS011;68437;52.236;5.710;2024-01-30T06:48:00;37.90;;;17.05;;
18501;SDS011;68437;52.236;5.710;2024-01-30T06:50:27;33.30;;;16.98;;
18501;SDS011;68437;52.236;5.710;2024-01-30T06:52:54;35.90;;;17.25;;
18501;SDS011;68437;52.236;5.710;2024-01-30T06:55:21;31.95;;;15.93;;
18501;SDS011;68437;52.236;5.710;2024-01-30T06:57:49;32.40;;;16.60;;
18501;SDS011;68437;52.236;5.710;2024-01-30T07:00:16;34.85;;;18.60;;
18501;SDS011;68437;52.236;5.710;2024-01-30T07:02:46;35.65;;;17.42;;
18501;SDS011;68437;52.236;5.710;2024-01-30T07:05:13;37.25;;;16.70;;
18501;SDS011;68437;52.236;5.710;2024-01-30T07:07:40;36.50;;;17.55;;
18501;SDS011;68437;52.236;5.710;2024-01-30T07:10:07;35.75;;;17.40;;
18501;SDS011;68437;52.236;5.710;2024-01-30T07:12:35;31.13;;;16.83;;
18501;SDS011;68437;52.236;5.710;2024-01-30T07:15:03;34.97;;;17.92;;
18501;SDS011;68437;52.236;5.710;2024-01-30T07:17:33;34.70;;;17.38;;
18501;SDS011;68437;52.236;5.710;2024-01-30T07:19:59;34.20;;;17.38;;
18501;SDS011;68437;52.236;5.710;2024-01-30T07:22:28;27.33;;;15.95;;
18501;SDS011;68437;52.236;5.710;2024-01-30T07:24:58;35.15;;;16.73;;
18501;SDS011;68437;52.236;5.710;2024-01-30T07:27:25;36.67;;;16.95;;
18501;SDS011;68437;52.236;5.710;2024-01-30T07:29:52;33.55;;;16.35;;
18501;SDS011;68437;52.236;5.710;2024-01-30T07:32:20;34.35;;;16.92;;
18501;SDS011;68437;52.236;5.710;2024-01-30T07:34:47;32.67;;;16.52;;
18501;SDS011;68437;52.236;5.710;2024-01-30T07:37:13;30.60;;;16.35;;
18501;SDS011;68437;52.236;5.710;2024-01-30T07:39:41;37.60;;;16.52;;
18501;SDS011;68437;52.236;5.710;2024-01-30T07:42:08;31.77;;;15.18;;
18501;SDS011;68437;52.236;5.710;2024-01-30T07:44:35;31.95;;;15.57;;
18501;SDS011;68437;52.236;5.710;2024-01-30T07:47:02;27.15;;;14.38;;
18501;SDS011;68437;52.236;5.710;2024-01-30T07:49:30;32.95;;;16.05;;
18501;SDS011;68437;52.236;5.710;2024-01-30T07:52:00;32.17;;;15.85;;
18501;SDS011;68437;52.236;5.710;2024-01-30T07:54:27;34.58;;;15.52;;
18501;SDS011;68437;52.236;5.710;2024-01-30T07:57:14;31.67;;;16.27;;
18501;SDS011;68437;52.236;5.710;2024-01-30T07:59:41;32.38;;;15.98;;
18501;SDS011;68437;52.236;5.710;2024-01-30T08:02:08;29.17;;;15.77;;
18501;SDS011;68437;52.236;5.710;2024-01-30T08:04:37;28.67;;;15.63;;
18501;SDS011;68437;52.236;5.710;2024-01-30T08:07:03;30.38;;;16.02;;
18501;SDS011;68437;52.236;5.710;2024-01-30T08:09:30;29.48;;;16.30;;
18501;SDS011;68437;52.236;5.710;2024-01-30T08:11:59;32.08;;;15.52;;
18501;SDS011;68437;52.236;5.710;2024-01-30T08:14:26;35.75;;;16.40;;
18501;SDS011;68437;52.236;5.710;2024-01-30T08:16:53;30.42;;;15.50;;
18501;SDS011;68437;52.236;5.710;2024-01-30T08:19:20;32.72;;;15.75;;
18501;SDS011;68437;52.236;5.710;2024-01-30T08:21:48;30.50;;;15.50;;
18501;SDS011;68437;52.236;5.710;2024-01-30T08:24:15;29.33;;;15.27;;
18501;SDS011;68437;52.236;5.710;2024-01-30T08:26:42;28.30;;;15.15;;
18501;SDS011;68437;52.236;5.710;2024-01-30T08:29:09;30.65;;;15.20;;
18501;SDS011;68437;52.236;5.710;2024-01-30T08:31:36;26.48;;;14.32;;
18501;SDS011;68437;52.236;5.710;2024-01-30T08:34:05;29.15;;;14.65;;
18501;SDS011;68437;52.236;5.710;2024-01-30T08:36:32;28.55;;;14.50;;
18501;SDS011;68437;52.236;5.710;2024-01-30T08:39:00;29.98;;;14.15;;
18501;SDS011;68437;52.236;5.710;2024-01-30T08:41:28;28.17;;;14.98;;
18501;SDS011;68437;52.236;5.710;2024-01-30T08:43:55;31.90;;;14.95;;
18501;SDS011;68437;52.236;5.710;2024-01-30T08:46:22;29.70;;;14.38;;
18501;SDS011;68437;52.236;5.710;2024-01-30T08:48:51;29.15;;;14.80;;
18501;SDS011;68437;52.236;5.710;2024-01-30T08:51:18;28.73;;;13.98;;
18501;SDS011;68437;52.236;5.710;2024-01-30T08:53:45;27.55;;;13.88;;
18501;SDS011;68437;52.236;5.710;2024-01-30T08:56:13;28.88;;;13.93;;
18501;SDS011;68437;52.236;5.710;2024-01-30T08:58:41;26.00;;;13.80;;
18501;SDS011;68437;52.236;5.710;2024-01-30T09:01:08;29.52;;;13.80;;
18501;SDS011;68437;52.236;5.710;2024-01-30T09:03:35;29.45;;;14.68;;
18501;SDS011;68437;52.236;5.710;2024-01-30T09:06:07;26.33;;;14.90;;
18501;SDS011;68437;52.236;5.710;2024-01-30T09:08:34;37.47;;;19.08;;
18501;SDS011;68437;52.236;5.710;2024-01-30T09:11:01;37.20;;;17.35;;
18501;SDS011;68437;52.236;5.710;2024-01-30T09:13:31;35.92;;;15.75;;
18501;SDS011;68437;52.236;5.710;2024-01-30T09:15:58;30.77;;;14.98;;
18501;SDS011;68437;52.236;5.710;2024-01-30T09:18:25;27.38;;;14.70;;
18501;SDS011;68437;52.236;5.710;2024-01-30T09:20:51;34.33;;;15.13;;
18501;SDS011;68437;52.236;5.710;2024-01-30T09:23:18;35.67;;;16.67;;
18501;SDS011;68437;52.236;5.710;2024-01-30T09:25:48;29.58;;;14.68;;
18501;SDS011;68437;52.236;5.710;2024-01-30T09:28:15;34.80;;;14.88;;
18501;SDS011;68437;52.236;5.710;2024-01-30T09:30:43;29.58;;;14.25;;
18501;SDS011;68437;52.236;5.710;2024-01-30T09:33:10;34.80;;;14.93;;
18501;SDS011;68437;52.236;5.710;2024-01-30T09:35:37;32.80;;;16.63;;
18501;SDS011;68437;52.236;5.710;2024-01-30T09:38:04;33.00;;;14.57;;
18501;SDS011;68437;52.236;5.710;2024-01-30T09:40:30;28.33;;;14.57;;
18501;SDS011;68437;52.236;5.710;2024-01-30T09:42:57;33.13;;;15.57;;
18501;SDS011;68437;52.236;5.710;2024-01-30T09:45:26;31.08;;;14.68;;
18501;SDS011;68437;52.236;5.710;2024-01-30T09:47:54;28.00;;;14.05;;
18501;SDS011;68437;52.236;5.710;2024-01-30T09:50:21;29.45;;;14.48;;
18501;SDS011;68437;52.236;5.710;2024-01-30T09:52:48;27.38;;;13.68;;
18501;SDS011;68437;52.236;5.710;2024-01-30T09:55:17;31.17;;;15.55;;
18501;SDS011;68437;52.236;5.710;2024-01-30T09:57:44;31.45;;;15.70;;
18501;SDS011;68437;52.236;5.710;2024-01-30T10:00:12;30.77;;;14.95;;
18501;SDS011;68437;52.236;5.710;2024-01-30T10:02:39;27.75;;;14.10;;
18501;SDS011;68437;52.236;5.710;2024-01-30T10:05:20;27.70;;;14.68;;
18501;SDS011;68437;52.236;5.710;2024-01-30T10:07:52;33.40;;;15.70;;
18501;SDS011;68437;52.236;5.710;2024-01-30T10:10:21;36.72;;;16.90;;
18501;SDS011;68437;52.236;5.710;2024-01-30T10:12:48;35.20;;;16.55;;
18501;SDS011;68437;52.236;5.710;2024-01-30T10:15:15;29.63;;;14.52;;
18501;SDS011;68437;52.236;5.710;2024-01-30T10:17:44;33.00;;;15.85;;
18501;SDS011;68437;52.236;5.710;2024-01-30T10:20:11;35.65;;;19.10;;
18501;SDS011;68437;52.236;5.710;2024-01-30T10:22:40;49.58;;;23.23;;
18501;SDS011;68437;52.236;5.710;2024-01-30T10:25:09;47.70;;;23.60;;
18501;SDS011;68437;52.236;5.710;2024-01-30T10:27:36;54.55;;;25.33;;
18501;SDS011;68437;52.236;5.710;2024-01-30T10:30:06;41.45;;;21.05;;
18501;SDS011;68437;52.236;5.710;2024-01-30T10:32:33;34.38;;;15.43;;
18501;SDS011;68437;52.236;5.710;2024-01-30T10:35:00;34.13;;;17.27;;
18501;SDS011;68437;52.236;5.710;2024-01-30T10:37:27;39.13;;;17.95;;
18501;SDS011;68437;52.236;5.710;2024-01-30T10:40:00;38.70;;;18.88;;
18501;SDS011;68437;52.236;5.710;2024-01-30T10:42:31;33.15;;;15.52;;
18501;SDS011;68437;52.236;5.710;2024-01-30T10:45:00;33.13;;;15.18;;
18501;SDS011;68437;52.236;5.710;2024-01-30T10:47:32;24.42;;;13.20;;
18501;SDS011;68437;52.236;5.710;2024-01-30T10:50:01;28.00;;;12.88;;
18501;SDS011;68437;52.236;5.710;2024-01-30T10:52:29;26.85;;;13.07;;
18501;SDS011;68437;52.236;5.710;2024-01-30T10:54:59;32.00;;;16.63;;
18501;SDS011;68437;52.236;5.710;2024-01-30T10:57:26;27.80;;;12.75;;
18501;SDS011;68437;52.236;5.710;2024-01-30T10:59:55;25.48;;;13.05;;
18501;SDS011;68437;52.236;5.710;2024-01-30T11:02:23;27.02;;;12.13;;
18501;SDS011;68437;52.236;5.710;2024-01-30T11:04:56;25.02;;;12.82;;
18501;SDS011;68437;52.236;5.710;2024-01-30T11:07:24;26.40;;;11.43;;
18501;SDS011;68437;52.236;5.710;2024-01-30T11:09:52;26.73;;;13.45;;
18501;SDS011;68437;52.236;5.710;2024-01-30T11:12:27;24.92;;;12.73;;
18501;SDS011;68437;52.236;5.710;2024-01-30T11:15:04;25.70;;;12.95;;
18501;SDS011;68437;52.236;5.710;2024-01-30T11:17:41;26.55;;;13.13;;
18501;SDS011;68437;52.236;5.710;2024-01-30T11:20:11;33.72;;;15.02;;
18501;SDS011;68437;52.236;5.710;2024-01-30T11:22:41;23.48;;;12.60;;
18501;SDS011;68437;52.236;5.710;2024-01-30T11:25:13;25.38;;;12.55;;
18501;SDS011;68437;52.236;5.710;2024-01-30T11:27:44;21.17;;;11.20;;
18501;SDS011;68437;52.236;5.710;2024-01-30T11:30:20;20.45;;;11.25;;
18501;SDS011;68437;52.236;5.710;2024-01-30T11:32:57;22.83;;;12.00;;
18501;SDS011;68437;52.236;5.710;2024-01-30T11:35:29;30.90;;;14.45;;
18501;SDS011;68437;52.236;5.710;2024-01-30T11:37:57;25.17;;;12.60;;
18501;SDS011;68437;52.236;5.710;2024-01-30T11:40:27;21.95;;;9.73;;
18501;SDS011;68437;52.236;5.710;2024-01-30T11:42:56;22.75;;;11.77;;
18501;SDS011;68437;52.236;5.710;2024-01-30T11:45:25;24.63;;;10.73;;
18501;SDS011;68437;52.236;5.710;2024-01-30T11:47:52;24.45;;;10.48;;
18501;SDS011;68437;52.236;5.710;2024-01-30T11:50:19;16.90;;;9.75;;
18501;SDS011;68437;52.236;5.710;2024-01-30T11:52:47;20.48;;;9.15;;
18501;SDS011;68437;52.236;5.710;2024-01-30T11:55:14;58.25;;;25.10;;
18501;SDS011;68437;52.236;5.710;2024-01-30T11:57:41;17.48;;;9.57;;
18501;SDS011;68437;52.236;5.710;2024-01-30T12:00:15;20.23;;;9.30;;
18501;SDS011;68437;52.236;5.710;2024-01-30T12:02:43;21.38;;;8.88;;
18501;SDS011;68437;52.236;5.710;2024-01-30T12:05:10;23.73;;;10.23;;
18501;SDS011;68437;52.236;5.710;2024-01-30T12:07:37;15.07;;;5.95;;
18501;SDS011;68437;52.236;5.710;2024-01-30T12:10:04;13.68;;;6.13;;
18501;SDS011;68437;52.236;5.710;2024-01-30T12:12:33;12.35;;;5.60;;
18501;SDS011;68437;52.236;5.710;2024-01-30T12:15:00;11.80;;;5.53;;
18501;SDS011;68437;52.236;5.710;2024-01-30T12:17:28;13.88;;;4.15;;
18501;SDS011;68437;52.236;5.710;2024-01-30T12:20:02;16.67;;;5.90;;
18501;SDS011;68437;52.236;5.710;2024-01-30T12:22:31;10.15;;;4.20;;
18501;SDS011;68437;52.236;5.710;2024-01-30T12:25:00;14.20;;;5.65;;
18501;SDS011;68437;52.236;5.710;2024-01-30T12:27:26;13.68;;;5.40;;
18501;SDS011;68437;52.236;5.710;2024-01-30T12:29:57;16.88;;;6.68;;
18501;SDS011;68437;52.236;5.710;2024-01-30T12:32:27;8.55;;;3.95;;
18501;SDS011;68437;52.236;5.710;2024-01-30T12:34:56;8.98;;;3.90;;
18501;SDS011;68437;52.236;5.710;2024-01-30T12:37:23;12.48;;;4.50;;
18501;SDS011;68437;52.236;5.710;2024-01-30T12:39:51;12.50;;;3.50;;
18501;SDS011;68437;52.236;5.710;2024-01-30T12:42:19;10.75;;;3.78;;
18501;SDS011;68437;52.236;5.710;2024-01-30T12:44:47;10.15;;;4.32;;
18501;SDS011;68437;52.236;5.710;2024-01-30T12:47:14;10.00;;;3.75;;
18501;SDS011;68437;52.236;5.710;2024-01-30T12:49:44;9.45;;;2.90;;
18501;SDS011;68437;52.236;5.710;2024-01-30T12:52:11;7.63;;;3.45;;
18501;SDS011;68437;52.236;5.710;2024-01-30T12:54:39;12.40;;;3.83;;
18501;SDS011;68437;52.236;5.710;2024-01-30T12:57:09;13.55;;;4.63;;
18501;SDS011;68437;52.236;5.710;2024-01-30T12:59:35;14.40;;;5.15;;
18501;SDS011;68437;52.236;5.710;2024-01-30T13:02:03;7.70;;;4.53;;
18501;SDS011;68437;52.236;5.710;2024-01-30T13:04:30;10.50;;;3.92;;
18501;SDS011;68437;52.236;5.710;2024-01-30T13:06:58;11.95;;;4.25;;
18501;SDS011;68437;52.236;5.710;2024-01-30T13:09:25;9.15;;;4.10;;
18501;SDS011;68437;52.236;5.710;2024-01-30T13:11:52;10.55;;;4.07;;
18501;SDS011;68437;52.236;5.710;2024-01-30T13:14:19;11.52;;;4.20;;
18501;SDS011;68437;52.236;5.710;2024-01-30T13:16:46;10.65;;;4.35;;
18501;SDS011;68437;52.236;5.710;2024-01-30T13:19:13;11.88;;;4.25;;
18501;SDS011;68437;52.236;5.710;2024-01-30T13:21:40;11.07;;;4.80;;
18501;SDS011;68437;52.236;5.710;2024-01-30T13:24:08;10.27;;;4.47;;
18501;SDS011;68437;52.236;5.710;2024-01-30T13:26:35;10.32;;;4.20;;
18501;SDS011;68437;52.236;5.710;2024-01-30T13:29:02;10.75;;;4.50;;
18501;SDS011;68437;52.236;5.710;2024-01-30T13:31:29;19.85;;;12.00;;
18501;SDS011;68437;52.236;5.710;2024-01-30T13:33:56;17.92;;;8.98;;
18501;SDS011;68437;52.236;5.710;2024-01-30T13:36:23;10.98;;;5.43;;
18501;SDS011;68437;52.236;5.710;2024-01-30T13:38:50;11.48;;;4.82;;
18501;SDS011;68437;52.236;5.710;2024-01-30T13:41:18;10.05;;;5.00;;
18501;SDS011;68437;52.236;5.710;2024-01-30T13:43:46;8.45;;;3.50;;
18501;SDS011;68437;52.236;5.710;2024-01-30T13:46:16;9.18;;;3.03;;
18501;SDS011;68437;52.236;5.710;2024-01-30T13:48:43;9.75;;;3.78;;
18501;SDS011;68437;52.236;5.710;2024-01-30T13:51:09;9.13;;;4.25;;
18501;SDS011;68437;52.236;5.710;2024-01-30T13:53:38;6.80;;;2.97;;
18501;SDS011;68437;52.236;5.710;2024-01-30T13:56:05;7.25;;;3.03;;
18501;SDS011;68437;52.236;5.710;2024-01-30T13:58:33;9.13;;;3.28;;
18501;SDS011;68437;52.236;5.710;2024-01-30T14:01:01;7.00;;;3.10;;
18501;SDS011;68437;52.236;5.710;2024-01-30T14:03:28;27.30;;;4.70;;
18501;SDS011;68437;52.236;5.710;2024-01-30T14:05:55;40.47;;;5.57;;
18501;SDS011;68437;52.236;5.710;2024-01-30T14:08:24;9.15;;;2.42;;
18501;SDS011;68437;52.236;5.710;2024-01-30T14:10:53;11.75;;;4.13;;
18501;SDS011;68437;52.236;5.710;2024-01-30T14:13:20;11.63;;;5.00;;
18501;SDS011;68437;52.236;5.710;2024-01-30T14:15:49;12.73;;;5.22;;
18501;SDS011;68437;52.236;5.710;2024-01-30T14:18:15;13.32;;;5.65;;
18501;SDS011;68437;52.236;5.710;2024-01-30T14:20:42;19.33;;;9.93;;
18501;SDS011;68437;52.236;5.710;2024-01-30T14:23:09;13.30;;;8.13;;
18501;SDS011;68437;52.236;5.710;2024-01-30T14:25:36;12.18;;;6.25;;